createdAt,value
2018-01-14T00:00:01.522Z,101624.15
2018-01-14T00:02:27.481Z,101619.66
2018-01-14T00:04:53.436Z,101618.14
2018-01-14T00:07:19.408Z,101614.45
2018-01-14T00:09:45.365Z,101617.17
2018-01-14T00:12:11.326Z,101611.77
2018-01-14T00:14:37.272Z,101612.08
2018-01-14T00:17:03.240Z,101604.13
2018-01-14T00:19:29.240Z,101609.39
2018-01-14T00:21:55.178Z,101603.92
2018-01-14T00:24:21.196Z,101602.98
2018-01-14T00:26:47.184Z,101602.15
2018-01-14T00:29:13.141Z,101597.30
2018-01-14T00:31:39.078Z,101592.14
2018-01-14T00:34:05.016Z,101598.50
2018-01-14T00:36:30.969Z,101609.25
2018-01-14T00:38:56.929Z,101601.43
2018-01-14T00:41:22.881Z,101602.14
2018-01-14T00:43:48.841Z,101598.23
2018-01-14T00:46:14.833Z,101596.31
2018-01-14T00:48:40.864Z,101584.69
2018-01-14T00:51:06.821Z,101584.52
2018-01-14T00:53:32.772Z,101588.80
2018-01-14T00:55:58.746Z,101583.81
2018-01-14T00:58:24.694Z,101566.55
2018-01-14T01:00:50.649Z,101563.66
2018-01-14T01:03:16.594Z,101570.65
2018-01-14T01:05:42.537Z,101566.95
2018-01-14T01:08:08.509Z,101564.58
2018-01-14T01:10:34.504Z,101565.81
2018-01-14T01:13:00.472Z,101573.48
2018-01-14T01:15:26.426Z,101573.14
2018-01-14T01:17:52.390Z,101579.36
2018-01-14T01:20:18.342Z,101580.57
2018-01-14T01:22:44.308Z,101571.12
2018-01-14T01:25:10.262Z,101575.59
2018-01-14T01:27:36.233Z,101577.84
2018-01-14T01:30:02.200Z,101572.50
2018-01-14T01:32:28.165Z,101580.72
2018-01-14T01:34:54.153Z,101583.25
2018-01-14T01:37:20.093Z,101582.76
2018-01-14T01:39:46.053Z,101576.23
2018-01-14T01:42:11.993Z,101567.63
2018-01-14T01:44:38.017Z,101588.72
2018-01-14T01:47:03.977Z,101580.23
2018-01-14T01:49:29.912Z,101580.95
2018-01-14T01:51:55.944Z,101582.72
2018-01-14T01:54:21.901Z,101584.16
2018-01-14T01:56:47.849Z,101578.49
2018-01-14T01:59:13.781Z,101576.72
2018-01-14T02:01:39.809Z,101580.91
2018-01-14T02:04:05.746Z,101584.34
2018-01-14T02:06:31.762Z,101581.33
2018-01-14T02:08:57.705Z,101580.98
2018-01-14T02:11:23.649Z,101573.97
2018-01-14T02:13:49.617Z,101574.02
2018-01-14T02:16:15.560Z,101577.25
2018-01-14T02:18:41.502Z,101570.34
2018-01-14T02:21:07.460Z,101574.69
2018-01-14T02:23:33.389Z,101568.16
2018-01-14T02:25:59.341Z,101568.20
2018-01-14T02:28:25.298Z,101561.94
2018-01-14T02:30:51.238Z,101568.84
2018-01-14T02:33:17.197Z,101574.61
2018-01-14T02:35:43.155Z,101570.53
2018-01-14T02:38:09.089Z,101572.08
2018-01-14T02:40:35.047Z,101575.25
2018-01-14T02:43:01.008Z,101572.45
2018-01-14T02:45:26.957Z,101572.91
2018-01-14T02:47:52.897Z,101570.34
2018-01-14T02:50:18.852Z,101570.72
2018-01-14T02:52:44.818Z,101571.14
2018-01-14T02:55:10.858Z,101566.80
2018-01-14T02:57:36.907Z,101568.61
2018-01-14T03:00:02.953Z,101568.80
2018-01-14T03:02:28.904Z,101573.48
2018-01-14T03:04:54.840Z,101572.30
2018-01-14T03:07:20.788Z,101577.31
2018-01-14T03:09:46.733Z,101573.84
2018-01-14T03:12:12.678Z,101569.85
2018-01-14T03:14:38.617Z,101567.86
2018-01-14T03:17:04.601Z,101572.64
2018-01-14T03:19:30.544Z,101566.77
2018-01-14T03:21:56.510Z,101575.99
2018-01-14T03:24:22.488Z,101561.22
2018-01-14T03:26:48.433Z,101567.44
2018-01-14T03:29:14.369Z,101563.16
2018-01-14T03:31:40.312Z,101565.66
2018-01-14T03:34:06.252Z,101557.03
2018-01-14T03:36:32.242Z,101565.25
2018-01-14T03:38:58.176Z,101559.20
2018-01-14T03:41:24.149Z,101563.92
2018-01-14T03:43:50.094Z,101564.16
2018-01-14T03:46:16.033Z,101561.55
2018-01-14T03:48:41.976Z,101557.37
2018-01-14T03:51:07.937Z,101556.57
2018-01-14T03:53:33.880Z,101555.44
2018-01-14T03:55:59.824Z,101557.74
2018-01-14T03:58:25.781Z,101562.58
2018-01-14T04:00:51.727Z,101563.73
2018-01-14T04:03:17.689Z,101560.19
2018-01-14T04:05:43.641Z,101561.24
2018-01-14T04:08:09.607Z,101559.67
2018-01-14T04:10:35.549Z,101565.13
2018-01-14T04:13:01.500Z,101566.41
2018-01-14T04:15:27.452Z,101566.11
2018-01-14T04:17:53.392Z,101563.23
2018-01-14T04:20:19.328Z,101567.45
2018-01-14T04:22:45.293Z,101561.23
2018-01-14T04:25:11.261Z,101561.92
2018-01-14T04:27:37.230Z,101558.75
2018-01-14T04:30:03.161Z,101555.73
2018-01-14T04:32:29.112Z,101553.02
2018-01-14T04:34:55.092Z,101556.16
2018-01-14T04:37:21.112Z,101552.22
2018-01-14T04:39:47.004Z,101547.52
2018-01-14T04:42:12.966Z,101553.02
2018-01-14T04:44:38.901Z,101555.81
2018-01-14T04:47:04.864Z,101545.30
2018-01-14T04:49:30.808Z,101540.42
2018-01-14T04:51:56.792Z,101543.60
2018-01-14T04:54:22.748Z,101544.27
2018-01-14T04:56:48.683Z,101548.13
2018-01-14T04:59:14.693Z,101544.31
2018-01-14T05:01:40.637Z,101547.55
2018-01-14T05:04:06.648Z,101547.93
2018-01-14T05:06:32.701Z,101544.91
2018-01-14T05:08:58.634Z,101538.98
2018-01-14T05:11:24.620Z,101543.13
2018-01-14T05:13:50.555Z,101542.94
2018-01-14T05:16:16.496Z,101548.29
2018-01-14T05:18:42.441Z,101552.02
2018-01-14T05:21:08.441Z,101553.01
2018-01-14T05:23:34.468Z,101560.39
2018-01-14T05:26:01.518Z,101555.11
2018-01-14T05:28:27.461Z,101560.16
2018-01-14T05:30:53.417Z,101556.36
2018-01-14T05:33:19.361Z,101555.58
2018-01-14T05:35:45.305Z,101562.18
2018-01-14T05:38:11.253Z,101564.42
2018-01-14T05:40:37.208Z,101565.73
2018-01-14T05:43:03.141Z,101562.41
2018-01-14T05:45:29.083Z,101565.03
2018-01-14T05:47:55.025Z,101561.90
2018-01-14T05:50:20.964Z,101556.06
2018-01-14T05:52:46.914Z,101557.83
2018-01-14T05:55:12.938Z,101554.07
2018-01-14T05:57:38.900Z,101547.76
2018-01-14T06:00:04.896Z,101556.09
2018-01-14T06:02:30.926Z,101547.72
2018-01-14T06:04:56.893Z,101553.98
2018-01-14T06:07:22.844Z,101554.21
2018-01-14T06:09:48.788Z,101555.21
2018-01-14T06:12:14.769Z,101552.43
2018-01-14T06:14:40.728Z,101555.88
2018-01-14T06:17:06.665Z,101552.45
2018-01-14T06:19:32.665Z,101556.85
2018-01-14T06:21:58.608Z,101560.64
2018-01-14T06:24:24.561Z,101555.30
2018-01-14T06:26:50.521Z,101558.88
2018-01-14T06:29:16.469Z,101554.81
2018-01-14T06:31:42.461Z,101550.47
2018-01-14T06:34:08.561Z,101549.56
2018-01-14T06:36:34.525Z,101551.27
2018-01-14T06:39:00.465Z,101555.41
2018-01-14T06:41:26.421Z,101545.68
2018-01-14T06:43:52.373Z,101552.13
2018-01-14T06:46:18.309Z,101554.39
2018-01-14T06:48:44.264Z,101552.63
2018-01-14T06:51:10.205Z,101555.83
2018-01-14T06:53:36.144Z,101553.70
2018-01-14T06:56:02.097Z,101562.31
2018-01-14T06:58:28.061Z,101555.79
2018-01-14T07:00:54.088Z,101553.06
2018-01-14T07:03:20.053Z,101552.59
2018-01-14T07:05:45.996Z,101549.31
2018-01-14T07:08:11.954Z,101555.20
2018-01-14T07:10:37.912Z,101562.94
2018-01-14T07:13:03.872Z,101557.23
2018-01-14T07:15:29.837Z,101571.53
2018-01-14T07:17:55.774Z,101573.56
2018-01-14T07:20:21.727Z,101574.59
2018-01-14T07:22:47.664Z,101570.75
2018-01-14T07:25:13.693Z,101571.23
2018-01-14T07:27:39.636Z,101571.16
2018-01-14T07:30:05.640Z,101566.03
2018-01-14T07:32:31.576Z,101564.11
2018-01-14T07:34:57.513Z,101564.63
2018-01-14T07:37:23.493Z,101566.37
2018-01-14T07:39:49.432Z,101563.73
2018-01-14T07:42:15.382Z,101564.97
2018-01-14T07:44:41.317Z,101569.02
2018-01-14T07:47:07.290Z,101574.97
2018-01-14T07:49:33.232Z,101566.48
2018-01-14T07:51:59.193Z,101570.33
2018-01-14T07:54:25.165Z,101574.22
2018-01-14T07:56:51.120Z,101582.37
2018-01-14T07:59:17.077Z,101584.97
2018-01-14T08:01:43.025Z,101590.39
2018-01-14T08:04:08.988Z,101588.38
2018-01-14T08:06:35.018Z,101586.56
2018-01-14T08:09:01.060Z,101593.66
2018-01-14T08:11:27.005Z,101595.72
2018-01-14T08:13:52.965Z,101598.55
2018-01-14T08:16:18.901Z,101602.28
2018-01-14T08:18:44.848Z,101600.06
2018-01-14T08:21:10.792Z,101595.01
2018-01-14T08:23:36.747Z,101603.23
2018-01-14T08:26:02.710Z,101608.52
2018-01-14T08:28:28.650Z,101610.82
2018-01-14T08:30:54.713Z,101621.01
2018-01-14T08:33:20.652Z,101618.36
2018-01-14T08:35:46.720Z,101624.78
2018-01-14T08:38:13.716Z,101619.09
2018-01-14T08:40:39.741Z,101612.03
2018-01-14T08:43:05.765Z,101604.67
2018-01-14T08:45:31.793Z,101608.97
2018-01-14T08:47:57.752Z,101615.79
2018-01-14T08:50:23.682Z,101617.97
2018-01-14T08:52:49.637Z,101609.37
2018-01-14T08:55:15.586Z,101616.96
2018-01-14T08:57:41.544Z,101616.55
2018-01-14T09:00:07.489Z,101619.95
2018-01-14T09:02:33.443Z,101615.45
2018-01-14T09:04:59.398Z,101612.81
2018-01-14T09:07:25.439Z,101610.50
2018-01-14T09:09:51.411Z,101616.16
2018-01-14T09:12:17.349Z,101614.47
2018-01-14T09:14:43.320Z,101615.94
2018-01-14T09:17:09.253Z,101618.58
2018-01-14T09:19:35.290Z,101622.05
2018-01-14T09:22:01.224Z,101624.16
2018-01-14T09:24:27.173Z,101620.54
2018-01-14T09:26:53.126Z,101631.03
2018-01-14T09:29:19.073Z,101622.12
2018-01-14T09:31:45.021Z,101622.69
2018-01-14T09:34:10.965Z,101625.00
2018-01-14T09:36:36.929Z,101621.04
2018-01-14T09:39:02.873Z,101628.34
2018-01-14T09:41:28.830Z,101626.08
2018-01-14T09:43:54.785Z,101624.31
2018-01-14T09:46:20.744Z,101623.98
2018-01-14T09:48:46.730Z,101615.55
2018-01-14T09:51:12.668Z,101610.89
2018-01-14T09:53:38.608Z,101610.59
2018-01-14T09:56:04.725Z,101606.62
2018-01-14T09:58:30.680Z,101608.69
2018-01-14T10:00:56.641Z,101595.72
2018-01-14T10:03:22.632Z,101605.88
2018-01-14T10:05:48.599Z,101602.63
2018-01-14T10:08:14.564Z,101603.19
2018-01-14T10:10:40.509Z,101604.89
2018-01-14T10:13:06.457Z,101606.77
2018-01-14T10:15:32.431Z,101601.98
2018-01-14T10:17:58.486Z,101604.09
2018-01-14T10:20:24.425Z,101597.75
2018-01-14T10:22:50.365Z,101599.83
2018-01-14T10:25:16.355Z,101596.95
2018-01-14T10:27:42.420Z,101600.45
2018-01-14T10:30:08.385Z,101606.70
2018-01-14T10:32:34.353Z,101601.24
2018-01-14T10:35:00.292Z,101603.69
2018-01-14T10:37:26.278Z,101602.61
2018-01-14T10:39:52.225Z,101594.41
2018-01-14T10:42:18.229Z,101597.19
2018-01-14T10:44:44.182Z,101597.07
2018-01-14T10:47:10.121Z,101590.63
2018-01-14T10:49:36.090Z,101585.74
2018-01-14T10:52:02.037Z,101584.27
2018-01-14T10:54:28.001Z,101584.05
2018-01-14T10:56:53.947Z,101588.10
2018-01-14T10:59:19.910Z,101585.41
2018-01-14T11:01:45.856Z,101582.05
2018-01-14T11:04:11.828Z,101581.54
2018-01-14T11:06:37.806Z,101579.88
2018-01-14T11:09:04.699Z,101582.61
2018-01-14T11:11:29.706Z,101578.08
2018-01-14T11:13:55.645Z,101580.70
2018-01-14T11:16:21.601Z,101579.78
2018-01-14T11:18:47.550Z,101583.03
2018-01-14T11:21:13.516Z,101578.97
2018-01-14T11:23:39.481Z,101580.52
2018-01-14T11:26:05.525Z,101575.38
2018-01-14T11:28:31.471Z,101581.97
2018-01-14T11:30:57.410Z,101574.94
2018-01-14T11:33:23.357Z,101571.14
2018-01-14T11:35:49.285Z,101568.94
2018-01-14T11:38:15.246Z,101572.31
2018-01-14T11:40:41.205Z,101559.66
2018-01-14T11:43:07.161Z,101560.34
2018-01-14T11:45:33.133Z,101559.56
2018-01-14T11:47:59.081Z,101553.13
2018-01-14T11:50:25.065Z,101564.45
2018-01-14T11:52:51.002Z,101559.72
2018-01-14T11:55:16.951Z,101561.20
2018-01-14T11:57:42.912Z,101562.91
2018-01-14T12:00:08.861Z,101561.50
2018-01-14T12:02:34.852Z,101557.34
2018-01-14T12:05:00.797Z,101552.67
2018-01-14T12:07:26.741Z,101548.04
2018-01-14T12:09:52.689Z,101547.27
2018-01-14T12:12:18.701Z,101543.71
2018-01-14T12:14:44.658Z,101537.28
2018-01-14T12:17:10.610Z,101543.66
2018-01-14T12:19:36.638Z,101541.44
2018-01-14T12:22:02.707Z,101541.19
2018-01-14T12:24:28.656Z,101544.55
2018-01-14T12:26:54.601Z,101542.11
2018-01-14T12:29:20.549Z,101539.97
2018-01-14T12:31:46.496Z,101540.29
2018-01-14T12:34:12.513Z,101538.06
2018-01-14T12:36:38.501Z,101535.09
2018-01-14T12:39:04.456Z,101534.09
2018-01-14T12:41:30.416Z,101534.20
2018-01-14T12:43:56.368Z,101538.25
2018-01-14T12:46:22.342Z,101538.36
2018-01-14T12:48:48.313Z,101534.31
2018-01-14T12:51:14.285Z,101539.38
2018-01-14T12:53:40.247Z,101528.19
2018-01-14T12:56:06.196Z,101533.32
2018-01-14T12:58:32.173Z,101527.60
2018-01-14T13:00:58.127Z,101523.38
2018-01-14T13:03:24.122Z,101530.50
2018-01-14T13:05:50.060Z,101527.39
2018-01-14T13:08:16.024Z,101519.46
2018-01-14T13:10:41.998Z,101521.10
2018-01-14T13:13:08.025Z,101529.34
2018-01-14T13:15:34.007Z,101526.36
2018-01-14T13:17:59.953Z,101521.20
2018-01-14T13:20:25.908Z,101522.81
2018-01-14T13:22:51.854Z,101517.89
2018-01-14T13:25:17.806Z,101510.34
2018-01-14T13:27:43.773Z,101515.37
2018-01-14T13:30:09.714Z,101516.23
2018-01-14T13:32:35.705Z,101512.44
2018-01-14T13:35:01.649Z,101515.58
2018-01-14T13:37:27.814Z,101511.42
2018-01-14T13:39:53.771Z,101521.05
2018-01-14T13:42:19.786Z,101526.75
2018-01-14T13:44:45.730Z,101527.03
2018-01-14T13:47:11.686Z,101534.85
2018-01-14T13:49:37.644Z,101528.51
2018-01-14T13:52:03.599Z,101522.05
2018-01-14T13:54:29.605Z,101523.36
2018-01-14T13:56:55.558Z,101526.73
2018-01-14T13:59:21.505Z,101528.42
2018-01-14T14:01:47.493Z,101524.63
2018-01-14T14:04:13.455Z,101527.63
2018-01-14T14:06:39.438Z,101516.55
2018-01-14T14:09:05.393Z,101513.30
2018-01-14T14:11:31.361Z,101514.38
2018-01-14T14:13:57.313Z,101515.37
2018-01-14T14:16:23.354Z,101518.27
2018-01-14T14:18:49.385Z,101514.66
2018-01-14T14:21:15.420Z,101522.77
2018-01-14T14:23:41.366Z,101527.86
2018-01-14T14:26:07.384Z,101525.65
2018-01-14T14:28:33.309Z,101517.33
2018-01-14T14:30:59.252Z,101519.08
2018-01-14T14:33:25.326Z,101516.44
2018-01-14T14:35:51.294Z,101521.49
2018-01-14T14:38:17.258Z,101514.64
2018-01-14T14:40:43.199Z,101523.10
2018-01-14T14:43:09.179Z,101521.95
2018-01-14T14:45:35.194Z,101528.27
2018-01-14T14:48:01.144Z,101529.33
2018-01-14T14:50:27.103Z,101529.39
2018-01-14T14:52:53.064Z,101524.50
2018-01-14T14:55:19.007Z,101527.81
2018-01-14T14:57:44.954Z,101524.58
2018-01-14T15:00:10.898Z,101514.81
2018-01-14T15:02:36.861Z,101520.83
2018-01-14T15:05:02.831Z,101513.34
2018-01-14T15:07:28.860Z,101521.10
2018-01-14T15:09:54.816Z,101519.55
2018-01-14T15:12:20.760Z,101521.49
2018-01-14T15:14:46.696Z,101515.74
2018-01-14T15:17:12.646Z,101519.98
2018-01-14T15:19:38.584Z,101523.10
2018-01-14T15:22:04.534Z,101511.56
2018-01-14T15:24:30.494Z,101517.15
2018-01-14T15:26:56.438Z,101514.09
2018-01-14T15:29:22.403Z,101507.17
2018-01-14T15:31:48.373Z,101510.50
2018-01-14T15:34:14.326Z,101512.52
2018-01-14T15:36:40.286Z,101522.48
2018-01-14T15:39:06.248Z,101523.75
2018-01-14T15:41:32.192Z,101523.18
2018-01-14T15:43:58.178Z,101521.66
2018-01-14T15:46:24.161Z,101518.90
2018-01-14T15:48:50.116Z,101512.63
2018-01-14T15:51:16.078Z,101516.87
2018-01-14T15:53:42.017Z,101518.50
2018-01-14T15:56:07.980Z,101516.97
2018-01-14T15:58:33.941Z,101516.40
2018-01-14T16:00:59.893Z,101517.89
2018-01-14T16:03:25.858Z,101527.16
2018-01-14T16:05:51.821Z,101533.14
2018-01-14T16:08:17.794Z,101525.16
2018-01-14T16:10:43.754Z,101526.09
2018-01-14T16:13:09.712Z,101517.66
2018-01-14T16:15:35.694Z,101515.25
2018-01-14T16:18:01.658Z,101518.58
2018-01-14T16:20:27.678Z,101516.16
2018-01-14T16:22:53.621Z,101507.48
2018-01-14T16:25:19.580Z,101511.28
2018-01-14T16:27:45.565Z,101512.98
2018-01-14T16:30:11.558Z,101520.30
2018-01-14T16:32:37.532Z,101529.52
2018-01-14T16:35:03.534Z,101527.22
2018-01-14T16:37:29.508Z,101534.07
2018-01-14T16:39:55.444Z,101530.52
2018-01-14T16:42:21.393Z,101529.74
2018-01-14T16:44:47.352Z,101531.13
2018-01-14T16:47:13.295Z,101535.37
2018-01-14T16:49:39.241Z,101533.92
2018-01-14T16:52:05.196Z,101535.05
2018-01-14T16:54:31.177Z,101530.08
2018-01-14T16:56:57.317Z,101525.23
2018-01-14T16:59:23.290Z,101528.16
2018-01-14T17:01:49.251Z,101519.95
2018-01-14T17:04:15.210Z,101521.37
2018-01-14T17:06:41.198Z,101517.06
2018-01-14T17:09:07.137Z,101523.43
2018-01-14T17:11:33.126Z,101517.97
2018-01-14T17:13:59.080Z,101524.44
2018-01-14T17:16:25.021Z,101524.90
2018-01-14T17:18:51.042Z,101525.36
2018-01-14T17:21:16.988Z,101525.14
2018-01-14T17:23:42.977Z,101521.76
2018-01-14T17:26:09.012Z,101517.73
2018-01-14T17:28:34.965Z,101511.19
2018-01-14T17:31:00.913Z,101513.31
2018-01-14T17:33:26.872Z,101513.20
2018-01-14T17:35:52.881Z,101513.20
2018-01-14T17:38:18.834Z,101509.82
2018-01-14T17:40:44.813Z,101513.14
2018-01-14T17:43:10.768Z,101513.36
2018-01-14T17:45:36.685Z,101512.77
2018-01-14T17:48:02.670Z,101502.48
2018-01-14T17:50:28.617Z,101505.92
2018-01-14T17:52:54.569Z,101509.75
2018-01-14T17:55:20.534Z,101516.42
2018-01-14T17:57:46.495Z,101518.68
2018-01-14T18:00:12.497Z,101511.06
2018-01-14T18:02:38.486Z,101502.09
2018-01-14T18:05:04.444Z,101502.92
2018-01-14T18:07:30.409Z,101498.86
2018-01-14T18:09:56.352Z,101496.58
2018-01-14T18:12:22.322Z,101494.34
2018-01-14T18:14:48.289Z,101489.25
2018-01-14T18:17:14.249Z,101489.98
2018-01-14T18:19:40.252Z,101493.28
2018-01-14T18:22:06.341Z,101495.19
2018-01-14T18:24:32.293Z,101490.52
2018-01-14T18:26:58.234Z,101496.86
2018-01-14T18:29:24.234Z,101501.84
2018-01-14T18:31:50.189Z,101506.32
2018-01-14T18:34:16.125Z,101507.55
2018-01-14T18:36:42.083Z,101505.65
2018-01-14T18:39:08.055Z,101503.34
2018-01-14T18:41:34.022Z,101504.24
2018-01-14T18:43:59.997Z,101500.17
2018-01-14T18:46:25.965Z,101500.53
2018-01-14T18:48:51.979Z,101497.59
2018-01-14T18:51:17.923Z,101503.02
2018-01-14T18:53:43.866Z,101500.98
2018-01-14T18:56:09.817Z,101498.70
2018-01-14T18:58:35.776Z,101495.45
2018-01-14T19:01:01.753Z,101499.91
2018-01-14T19:03:27.735Z,101504.05
2018-01-14T19:05:53.693Z,101504.44
2018-01-14T19:08:19.630Z,101502.59
2018-01-14T19:10:45.610Z,101498.43
2018-01-14T19:13:11.557Z,101502.91
2018-01-14T19:15:37.509Z,101509.55
2018-01-14T19:18:03.489Z,101506.81
2018-01-14T19:20:29.446Z,101502.12
2018-01-14T19:22:55.404Z,101500.48
2018-01-14T19:25:21.359Z,101496.83
2018-01-14T19:27:47.414Z,101499.34
2018-01-14T19:30:13.385Z,101491.56
2018-01-14T19:32:39.322Z,101491.98
2018-01-14T19:35:05.266Z,101493.36
2018-01-14T19:37:31.227Z,101489.17
2018-01-14T19:39:57.183Z,101493.83
2018-01-14T19:42:23.134Z,101492.61
2018-01-14T19:44:49.083Z,101490.38
2018-01-14T19:47:15.066Z,101493.62
2018-01-14T19:49:41.021Z,101490.27
2018-01-14T19:52:07.206Z,101495.08
2018-01-14T19:54:33.174Z,101496.38
2018-01-14T19:56:59.165Z,101493.77
2018-01-14T19:59:25.133Z,101494.68
2018-01-14T20:01:51.078Z,101493.34
2018-01-14T20:04:17.018Z,101492.53
2018-01-14T20:06:43.081Z,101491.01
2018-01-14T20:09:09.035Z,101494.20
2018-01-14T20:11:35.216Z,101499.57
2018-01-14T20:14:01.228Z,101494.88
2018-01-14T20:16:27.210Z,101497.31
2018-01-14T20:18:53.509Z,101501.19
2018-01-14T20:21:19.642Z,101498.16
2018-01-14T20:23:45.770Z,101494.87
2018-01-14T20:26:11.849Z,101488.87
2018-01-14T20:28:37.828Z,101491.17
2018-01-14T20:31:03.790Z,101488.33
2018-01-14T20:33:29.737Z,101480.33
2018-01-14T20:35:55.796Z,101476.36
2018-01-14T20:40:54.233Z,101475.73
2018-01-14T20:43:20.205Z,101478.55
2018-01-14T20:45:46.250Z,101482.27
2018-01-14T20:48:12.258Z,101485.69
2018-01-14T20:50:38.197Z,101477.14
2018-01-14T20:53:04.145Z,101473.55
2018-01-14T20:55:30.096Z,101468.44
2018-01-14T20:57:56.033Z,101470.16
2018-01-14T21:00:22.057Z,101469.88
2018-01-14T21:02:48.018Z,101468.23
2018-01-14T21:05:14.078Z,101454.66
2018-01-14T21:07:40.022Z,101455.06
2018-01-14T21:10:05.968Z,101458.95
2018-01-14T21:12:31.911Z,101449.14
2018-01-14T21:14:57.861Z,101465.20
2018-01-14T21:17:23.813Z,101456.44
2018-01-14T21:19:49.744Z,101459.00
2018-01-14T21:22:15.727Z,101464.85
2018-01-14T21:24:41.681Z,101465.33
2018-01-14T21:27:07.639Z,101473.23
2018-01-14T21:29:33.638Z,101472.83
2018-01-14T21:31:59.698Z,101468.45
2018-01-14T21:34:25.728Z,101471.11
2018-01-14T21:36:51.669Z,101459.98
2018-01-14T21:39:17.622Z,101465.66
2018-01-14T21:41:43.573Z,101465.39
2018-01-14T21:44:09.549Z,101470.86
2018-01-14T21:46:35.488Z,101468.66
2018-01-14T21:49:01.457Z,101464.92
2018-01-14T21:51:27.455Z,101459.22
2018-01-14T21:53:53.447Z,101458.88
2018-01-14T21:56:19.461Z,101458.50
2018-01-14T21:58:45.487Z,101455.52
2018-01-14T22:01:11.453Z,101445.94
2018-01-14T22:03:37.438Z,101444.90
2018-01-14T22:06:03.369Z,101447.70
2018-01-14T22:08:29.342Z,101449.72
2018-01-14T22:10:55.294Z,101448.07
2018-01-14T22:13:21.263Z,101452.03
2018-01-14T22:15:47.230Z,101447.48
2018-01-14T22:18:13.216Z,101445.47
2018-01-14T22:20:39.171Z,101440.20
2018-01-14T22:23:05.125Z,101433.83
2018-01-14T22:25:31.082Z,101432.32
2018-01-14T22:27:57.109Z,101431.02
2018-01-14T22:30:23.081Z,101419.84
2018-01-14T22:32:49.037Z,101421.30
2018-01-14T22:35:15.003Z,101416.43
2018-01-14T22:37:40.949Z,101413.54
2018-01-14T22:40:06.949Z,101409.83
2018-01-14T22:42:32.985Z,101407.88
2018-01-14T22:44:58.935Z,101403.43
2018-01-14T22:47:24.892Z,101403.16
2018-01-14T22:49:50.840Z,101402.02
2018-01-14T22:52:16.798Z,101398.13
2018-01-14T22:54:42.830Z,101387.36
2018-01-14T22:57:08.800Z,101389.00
2018-01-14T22:59:34.762Z,101383.45
2018-01-14T23:02:00.698Z,101385.39
2018-01-14T23:04:26.756Z,101383.72
2018-01-14T23:06:52.777Z,101389.77
2018-01-14T23:09:18.740Z,101388.89
2018-01-14T23:11:44.689Z,101390.97
2018-01-14T23:14:10.638Z,101385.16
2018-01-14T23:16:36.599Z,101388.95
2018-01-14T23:19:02.553Z,101390.83
2018-01-14T23:21:28.522Z,101377.76
2018-01-14T23:23:54.481Z,101380.17
2018-01-14T23:26:20.451Z,101381.56
2018-01-14T23:28:46.390Z,101379.69
2018-01-14T23:31:12.367Z,101379.63
2018-01-14T23:33:38.439Z,101372.78
2018-01-14T23:36:04.420Z,101369.66
2018-01-14T23:38:30.374Z,101366.23
2018-01-14T23:40:56.357Z,101363.31
2018-01-14T23:43:22.292Z,101360.70
2018-01-14T23:45:48.295Z,101352.30
2018-01-14T23:48:14.269Z,101354.38
2018-01-14T23:50:40.215Z,101346.84
2018-01-14T23:53:06.161Z,101353.95
2018-01-14T23:55:32.105Z,101353.14
2018-01-14T23:57:58.129Z,101352.84
